sensor_id;sensor_type;location;lat;lon;timestamp;P1;durP1;ratioP1;P2;durP2;ratioP2
4895;SDS011;2463;49.948;8.472;2023-04-24T00:01:04;90.10;;;4.75;;
4895;SDS011;2463;49.948;8.472;2023-04-24T00:03:33;90.88;;;4.90;;
4895;SDS011;2463;49.948;8.472;2023-04-24T00:06:00;89.57;;;4.63;;
4895;SDS011;2463;49.948;8.472;2023-04-24T00:08:28;92.18;;;5.28;;
4895;SDS011;2463;49.948;8.472;2023-04-24T00:10:55;88.57;;;4.70;;
4895;SDS011;2463;49.948;8.472;2023-04-24T00:13:22;90.22;;;4.80;;
4895;SDS011;2463;49.948;8.472;2023-04-24T00:15:49;91.30;;;5.05;;
4895;SDS011;2463;49.948;8.472;2023-04-24T00:18:15;94.07;;;4.75;;
4895;SDS011;2463;49.948;8.472;2023-04-24T00:20:42;90.03;;;4.90;;
4895;SDS011;2463;49.948;8.472;2023-04-24T00:23:10;88.90;;;4.75;;
4895;SDS011;2463;49.948;8.472;2023-04-24T00:25:36;90.25;;;4.97;;
4895;SDS011;2463;49.948;8.472;2023-04-24T00:28:03;89.32;;;4.75;;
4895;SDS011;2463;49.948;8.472;2023-04-24T00:30:30;89.32;;;4.70;;
4895;SDS011;2463;49.948;8.472;2023-04-24T00:32:57;90.78;;;5.50;;
4895;SDS011;2463;49.948;8.472;2023-04-24T00:35:24;90.40;;;4.97;;
4895;SDS011;2463;49.948;8.472;2023-04-24T00:37:51;91.13;;;5.55;;
4895;SDS011;2463;49.948;8.472;2023-04-24T00:40:18;93.63;;;5.15;;
4895;SDS011;2463;49.948;8.472;2023-04-24T00:42:44;90.03;;;5.10;;
4895;SDS011;2463;49.948;8.472;2023-04-24T00:45:12;90.97;;;5.20;;
4895;SDS011;2463;49.948;8.472;2023-04-24T00:47:39;90.82;;;5.35;;
4895;SDS011;2463;49.948;8.472;2023-04-24T00:50:08;89.82;;;5.13;;
4895;SDS011;2463;49.948;8.472;2023-04-24T00:52:34;91.57;;;5.43;;
4895;SDS011;2463;49.948;8.472;2023-04-24T00:55:02;92.50;;;4.90;;
4895;SDS011;2463;49.948;8.472;2023-04-24T00:57:29;95.50;;;5.20;;
4895;SDS011;2463;49.948;8.472;2023-04-24T00:59:56;90.03;;;4.82;;
4895;SDS011;2463;49.948;8.472;2023-04-24T01:02:23;89.88;;;5.72;;
4895;SDS011;2463;49.948;8.472;2023-04-24T01:04:51;90.50;;;5.10;;
4895;SDS011;2463;49.948;8.472;2023-04-24T01:07:19;89.93;;;5.03;;
4895;SDS011;2463;49.948;8.472;2023-04-24T01:09:47;90.28;;;5.10;;
4895;SDS011;2463;49.948;8.472;2023-04-24T01:12:15;90.05;;;4.90;;
4895;SDS011;2463;49.948;8.472;2023-04-24T01:14:42;92.47;;;5.60;;
4895;SDS011;2463;49.948;8.472;2023-04-24T01:17:09;90.45;;;5.05;;
4895;SDS011;2463;49.948;8.472;2023-04-24T01:19:35;91.90;;;6.40;;
4895;SDS011;2463;49.948;8.472;2023-04-24T01:22:03;92.18;;;5.30;;
4895;SDS011;2463;49.948;8.472;2023-04-24T01:24:38;92.82;;;5.55;;
4895;SDS011;2463;49.948;8.472;2023-04-24T01:27:05;91.18;;;5.35;;
4895;SDS011;2463;49.948;8.472;2023-04-24T01:29:32;90.30;;;5.15;;
4895;SDS011;2463;49.948;8.472;2023-04-24T01:31:58;91.95;;;5.38;;
4895;SDS011;2463;49.948;8.472;2023-04-24T01:34:26;93.95;;;5.15;;
4895;SDS011;2463;49.948;8.472;2023-04-24T01:36:53;91.90;;;5.15;;
4895;SDS011;2463;49.948;8.472;2023-04-24T01:39:20;90.55;;;5.20;;
4895;SDS011;2463;49.948;8.472;2023-04-24T01:41:49;91.10;;;5.07;;
4895;SDS011;2463;49.948;8.472;2023-04-24T01:44:16;94.50;;;5.30;;
4895;SDS011;2463;49.948;8.472;2023-04-24T01:46:44;91.35;;;5.20;;
4895;SDS011;2463;49.948;8.472;2023-04-24T01:49:11;93.45;;;5.60;;
4895;SDS011;2463;49.948;8.472;2023-04-24T01:51:37;96.13;;;5.13;;
4895;SDS011;2463;49.948;8.472;2023-04-24T01:54:04;94.65;;;5.32;;
4895;SDS011;2463;49.948;8.472;2023-04-24T01:56:33;91.93;;;5.00;;
4895;SDS011;2463;49.948;8.472;2023-04-24T01:59:02;92.55;;;4.95;;
4895;SDS011;2463;49.948;8.472;2023-04-24T02:01:35;92.18;;;5.18;;
4895;SDS011;2463;49.948;8.472;2023-04-24T02:04:03;90.45;;;4.80;;
4895;SDS011;2463;49.948;8.472;2023-04-24T02:06:30;90.97;;;5.03;;
4895;SDS011;2463;49.948;8.472;2023-04-24T02:08:58;91.75;;;5.20;;
4895;SDS011;2463;49.948;8.472;2023-04-24T02:11:25;89.72;;;5.20;;
4895;SDS011;2463;49.948;8.472;2023-04-24T02:13:52;88.85;;;5.00;;
4895;SDS011;2463;49.948;8.472;2023-04-24T02:16:19;90.38;;;5.05;;
4895;SDS011;2463;49.948;8.472;2023-04-24T02:18:46;89.82;;;4.70;;
4895;SDS011;2463;49.948;8.472;2023-04-24T02:21:13;89.63;;;4.82;;
4895;SDS011;2463;49.948;8.472;2023-04-24T02:23:39;89.18;;;4.88;;
4895;SDS011;2463;49.948;8.472;2023-04-24T02:26:06;92.90;;;5.20;;
4895;SDS011;2463;49.948;8.472;2023-04-24T02:28:33;89.53;;;4.78;;
4895;SDS011;2463;49.948;8.472;2023-04-24T02:30:59;90.45;;;4.85;;
4895;SDS011;2463;49.948;8.472;2023-04-24T02:33:26;91.38;;;5.05;;
4895;SDS011;2463;49.948;8.472;2023-04-24T02:35:53;89.25;;;4.65;;
4895;SDS011;2463;49.948;8.472;2023-04-24T02:38:19;89.78;;;4.82;;
4895;SDS011;2463;49.948;8.472;2023-04-24T02:40:46;89.88;;;4.88;;
4895;SDS011;2463;49.948;8.472;2023-04-24T02:43:13;90.20;;;5.30;;
4895;SDS011;2463;49.948;8.472;2023-04-24T02:45:39;91.55;;;5.00;;
4895;SDS011;2463;49.948;8.472;2023-04-24T02:48:06;90.20;;;4.97;;
4895;SDS011;2463;49.948;8.472;2023-04-24T02:50:33;95.45;;;5.50;;
4895;SDS011;2463;49.948;8.472;2023-04-24T02:52:59;90.22;;;5.20;;
4895;SDS011;2463;49.948;8.472;2023-04-24T02:55:26;89.22;;;4.90;;
4895;SDS011;2463;49.948;8.472;2023-04-24T02:57:53;90.68;;;4.90;;
4895;SDS011;2463;49.948;8.472;2023-04-24T03:00:20;91.55;;;4.90;;
4895;SDS011;2463;49.948;8.472;2023-04-24T03:02:46;90.13;;;4.78;;
4895;SDS011;2463;49.948;8.472;2023-04-24T03:05:14;92.85;;;5.50;;
4895;SDS011;2463;49.948;8.472;2023-04-24T03:07:40;89.32;;;4.80;;
4895;SDS011;2463;49.948;8.472;2023-04-24T03:10:07;90.78;;;5.05;;
4895;SDS011;2463;49.948;8.472;2023-04-24T03:12:34;88.78;;;4.53;;
4895;SDS011;2463;49.948;8.472;2023-04-24T03:15:01;89.47;;;4.80;;
4895;SDS011;2463;49.948;8.472;2023-04-24T03:17:28;90.22;;;5.32;;
4895;SDS011;2463;49.948;8.472;2023-04-24T03:19:54;89.70;;;4.82;;
4895;SDS011;2463;49.948;8.472;2023-04-24T03:22:21;88.93;;;4.50;;
4895;SDS011;2463;49.948;8.472;2023-04-24T03:24:48;89.20;;;4.78;;
4895;SDS011;2463;49.948;8.472;2023-04-24T03:27:14;91.78;;;5.53;;
4895;SDS011;2463;49.948;8.472;2023-04-24T03:29:41;89.80;;;4.60;;
4895;SDS011;2463;49.948;8.472;2023-04-24T03:32:08;91.85;;;4.97;;
4895;SDS011;2463;49.948;8.472;2023-04-24T03:34:35;89.53;;;5.03;;
4895;SDS011;2463;49.948;8.472;2023-04-24T03:37:01;89.90;;;4.70;;
4895;SDS011;2463;49.948;8.472;2023-04-24T03:39:28;89.22;;;4.80;;
4895;SDS011;2463;49.948;8.472;2023-04-24T03:41:55;90.25;;;4.90;;
4895;SDS011;2463;49.948;8.472;2023-04-24T03:44:21;93.45;;;5.10;;
4895;SDS011;2463;49.948;8.472;2023-04-24T03:46:48;95.75;;;5.25;;
4895;SDS011;2463;49.948;8.472;2023-04-24T03:49:15;89.70;;;4.80;;
4895;SDS011;2463;49.948;8.472;2023-04-24T03:51:41;91.65;;;5.00;;
4895;SDS011;2463;49.948;8.472;2023-04-24T03:54:08;89.53;;;4.80;;
4895;SDS011;2463;49.948;8.472;2023-04-24T03:56:35;90.88;;;5.13;;
4895;SDS011;2463;49.948;8.472;2023-04-24T03:59:01;89.68;;;4.85;;
4895;SDS011;2463;49.948;8.472;2023-04-24T04:01:28;89.47;;;4.88;;
4895;SDS011;2463;49.948;8.472;2023-04-24T04:03:55;89.50;;;5.00;;
4895;SDS011;2463;49.948;8.472;2023-04-24T04:06:22;89.07;;;4.85;;
4895;SDS011;2463;49.948;8.472;2023-04-24T04:08:48;92.00;;;4.80;;
4895;SDS011;2463;49.948;8.472;2023-04-24T04:11:15;89.75;;;4.75;;
4895;SDS011;2463;49.948;8.472;2023-04-24T04:13:42;89.40;;;4.70;;
4895;SDS011;2463;49.948;8.472;2023-04-24T04:16:09;89.50;;;4.82;;
4895;SDS011;2463;49.948;8.472;2023-04-24T04:18:36;89.63;;;4.80;;
4895;SDS011;2463;49.948;8.472;2023-04-24T04:21:03;90.93;;;5.50;;
4895;SDS011;2463;49.948;8.472;2023-04-24T04:23:30;89.88;;;5.10;;
4895;SDS011;2463;49.948;8.472;2023-04-24T04:25:58;90.65;;;5.35;;
4895;SDS011;2463;49.948;8.472;2023-04-24T04:28:24;90.63;;;5.40;;
4895;SDS011;2463;49.948;8.472;2023-04-24T04:30:52;90.65;;;5.35;;
4895;SDS011;2463;49.948;8.472;2023-04-24T04:33:24;91.32;;;5.28;;
4895;SDS011;2463;49.948;8.472;2023-04-24T04:35:52;90.20;;;5.20;;
4895;SDS011;2463;49.948;8.472;2023-04-24T04:38:18;91.70;;;5.00;;
4895;SDS011;2463;49.948;8.472;2023-04-24T04:40:46;90.22;;;5.15;;
4895;SDS011;2463;49.948;8.472;2023-04-24T04:43:12;90.65;;;5.30;;
4895;SDS011;2463;49.948;8.472;2023-04-24T04:45:42;90.68;;;5.32;;
4895;SDS011;2463;49.948;8.472;2023-04-24T04:48:09;90.25;;;5.32;;
4895;SDS011;2463;49.948;8.472;2023-04-24T04:50:38;91.35;;;5.53;;
4895;SDS011;2463;49.948;8.472;2023-04-24T04:53:05;90.78;;;5.30;;
4895;SDS011;2463;49.948;8.472;2023-04-24T04:55:33;90.65;;;5.55;;
4895;SDS011;2463;49.948;8.472;2023-04-24T04:57:59;89.78;;;5.10;;
4895;SDS011;2463;49.948;8.472;2023-04-24T05:00:26;91.68;;;5.55;;
4895;SDS011;2463;49.948;8.472;2023-04-24T05:02:55;93.97;;;5.72;;
4895;SDS011;2463;49.948;8.472;2023-04-24T05:05:38;92.30;;;5.63;;
4895;SDS011;2463;49.948;8.472;2023-04-24T05:08:07;93.80;;;5.68;;
4895;SDS011;2463;49.948;8.472;2023-04-24T05:10:51;90.78;;;5.35;;
4895;SDS011;2463;49.948;8.472;2023-04-24T05:13:17;89.72;;;5.22;;
4895;SDS011;2463;49.948;8.472;2023-04-24T05:15:57;91.35;;;5.57;;
4895;SDS011;2463;49.948;8.472;2023-04-24T05:18:24;90.70;;;5.30;;
4895;SDS011;2463;49.948;8.472;2023-04-24T05:20:51;93.72;;;5.65;;
4895;SDS011;2463;49.948;8.472;2023-04-24T05:23:17;90.40;;;5.50;;
4895;SDS011;2463;49.948;8.472;2023-04-24T05:25:44;90.80;;;5.35;;
4895;SDS011;2463;49.948;8.472;2023-04-24T05:28:12;91.18;;;5.65;;
4895;SDS011;2463;49.948;8.472;2023-04-24T05:30:38;92.03;;;5.75;;
4895;SDS011;2463;49.948;8.472;2023-04-24T05:33:05;90.05;;;5.55;;
4895;SDS011;2463;49.948;8.472;2023-04-24T05:35:32;90.72;;;5.78;;
4895;SDS011;2463;49.948;8.472;2023-04-24T05:37:59;90.88;;;5.38;;
4895;SDS011;2463;49.948;8.472;2023-04-24T05:40:25;92.00;;;5.70;;
4895;SDS011;2463;49.948;8.472;2023-04-24T05:42:52;92.25;;;5.80;;
4895;SDS011;2463;49.948;8.472;2023-04-24T05:45:19;91.95;;;6.20;;
4895;SDS011;2463;49.948;8.472;2023-04-24T05:47:46;90.32;;;5.88;;
4895;SDS011;2463;49.948;8.472;2023-04-24T05:50:13;91.28;;;6.20;;
4895;SDS011;2463;49.948;8.472;2023-04-24T05:52:40;91.45;;;6.00;;
4895;SDS011;2463;49.948;8.472;2023-04-24T05:55:06;90.78;;;5.95;;
4895;SDS011;2463;49.948;8.472;2023-04-24T05:57:33;90.93;;;6.35;;
4895;SDS011;2463;49.948;8.472;2023-04-24T06:00:00;91.95;;;6.15;;
4895;SDS011;2463;49.948;8.472;2023-04-24T06:02:27;90.93;;;6.15;;
4895;SDS011;2463;49.948;8.472;2023-04-24T06:04:58;91.15;;;5.70;;
4895;SDS011;2463;49.948;8.472;2023-04-24T06:07:25;90.93;;;6.00;;
4895;SDS011;2463;49.948;8.472;2023-04-24T06:09:52;92.00;;;6.78;;
4895;SDS011;2463;49.948;8.472;2023-04-24T06:12:19;91.82;;;6.35;;
4895;SDS011;2463;49.948;8.472;2023-04-24T06:14:46;93.03;;;6.65;;
4895;SDS011;2463;49.948;8.472;2023-04-24T06:17:12;93.07;;;6.80;;
4895;SDS011;2463;49.948;8.472;2023-04-24T06:19:39;93.38;;;7.43;;
4895;SDS011;2463;49.948;8.472;2023-04-24T06:22:07;91.47;;;6.47;;
4895;SDS011;2463;49.948;8.472;2023-04-24T06:24:36;91.90;;;6.43;;
4895;SDS011;2463;49.948;8.472;2023-04-24T06:27:02;91.88;;;6.15;;
4895;SDS011;2463;49.948;8.472;2023-04-24T06:29:29;97.68;;;6.78;;
4895;SDS011;2463;49.948;8.472;2023-04-24T06:31:56;93.00;;;6.53;;
4895;SDS011;2463;49.948;8.472;2023-04-24T06:34:23;90.55;;;6.05;;
4895;SDS011;2463;49.948;8.472;2023-04-24T06:36:49;91.43;;;6.40;;
4895;SDS011;2463;49.948;8.472;2023-04-24T06:39:16;93.40;;;6.50;;
4895;SDS011;2463;49.948;8.472;2023-04-24T06:41:43;91.68;;;6.63;;
4895;SDS011;2463;49.948;8.472;2023-04-24T06:44:09;93.28;;;6.20;;
4895;SDS011;2463;49.948;8.472;2023-04-24T06:46:36;91.85;;;6.60;;
4895;SDS011;2463;49.948;8.472;2023-04-24T06:49:06;91.25;;;6.30;;
4895;SDS011;2463;49.948;8.472;2023-04-24T06:51:32;92.72;;;6.43;;
4895;SDS011;2463;49.948;8.472;2023-04-24T06:53:59;94.07;;;7.45;;
4895;SDS011;2463;49.948;8.472;2023-04-24T06:56:26;92.10;;;7.10;;
4895;SDS011;2463;49.948;8.472;2023-04-24T06:58:54;91.35;;;6.68;;
4895;SDS011;2463;49.948;8.472;2023-04-24T07:01:21;95.85;;;6.85;;
4895;SDS011;2463;49.948;8.472;2023-04-24T07:03:48;98.43;;;7.05;;
4895;SDS011;2463;49.948;8.472;2023-04-24T07:06:15;93.95;;;6.40;;
4895;SDS011;2463;49.948;8.472;2023-04-24T07:08:42;94.53;;;7.10;;
4895;SDS011;2463;49.948;8.472;2023-04-24T07:11:09;91.47;;;6.95;;
4895;SDS011;2463;49.948;8.472;2023-04-24T07:13:36;91.00;;;6.38;;
4895;SDS011;2463;49.948;8.472;2023-04-24T07:16:08;91.95;;;6.70;;
4895;SDS011;2463;49.948;8.472;2023-04-24T07:18:35;92.18;;;6.40;;
4895;SDS011;2463;49.948;8.472;2023-04-24T07:21:02;91.50;;;5.68;;
4895;SDS011;2463;49.948;8.472;2023-04-24T07:23:29;89.78;;;5.80;;
4895;SDS011;2463;49.948;8.472;2023-04-24T07:25:56;89.53;;;5.60;;
4895;SDS011;2463;49.948;8.472;2023-04-24T07:28:23;90.10;;;5.47;;
4895;SDS011;2463;49.948;8.472;2023-04-24T07:30:50;88.93;;;5.15;;
4895;SDS011;2463;49.948;8.472;2023-04-24T07:33:20;87.78;;;5.40;;
4895;SDS011;2463;49.948;8.472;2023-04-24T07:35:46;89.03;;;5.80;;
4895;SDS011;2463;49.948;8.472;2023-04-24T07:38:13;87.90;;;4.70;;
4895;SDS011;2463;49.948;8.472;2023-04-24T07:40:40;88.60;;;5.28;;
4895;SDS011;2463;49.948;8.472;2023-04-24T07:43:07;89.28;;;6.10;;
4895;SDS011;2463;49.948;8.472;2023-04-24T07:45:33;90.68;;;5.00;;
4895;SDS011;2463;49.948;8.472;2023-04-24T07:48:03;90.60;;;5.10;;
4895;SDS011;2463;49.948;8.472;2023-04-24T07:50:30;95.25;;;5.70;;
4895;SDS011;2463;49.948;8.472;2023-04-24T07:52:57;88.28;;;4.82;;
4895;SDS011;2463;49.948;8.472;2023-04-24T07:55:23;87.75;;;5.00;;
4895;SDS011;2463;49.948;8.472;2023-04-24T07:57:53;95.38;;;5.45;;
4895;SDS011;2463;49.948;8.472;2023-04-24T08:00:20;87.35;;;4.70;;
4895;SDS011;2463;49.948;8.472;2023-04-24T08:02:47;87.78;;;4.85;;
4895;SDS011;2463;49.948;8.472;2023-04-24T08:05:14;88.03;;;5.15;;
4895;SDS011;2463;49.948;8.472;2023-04-24T08:07:41;88.22;;;4.97;;
4895;SDS011;2463;49.948;8.472;2023-04-24T08:10:11;92.05;;;4.88;;
4895;SDS011;2463;49.948;8.472;2023-04-24T08:12:38;86.95;;;4.55;;
4895;SDS011;2463;49.948;8.472;2023-04-24T08:15:05;86.80;;;4.50;;
4895;SDS011;2463;49.948;8.472;2023-04-24T08:17:33;87.22;;;4.70;;
4895;SDS011;2463;49.948;8.472;2023-04-24T08:20:02;87.93;;;4.93;;
4895;SDS011;2463;49.948;8.472;2023-04-24T08:22:31;87.05;;;4.50;;
4895;SDS011;2463;49.948;8.472;2023-04-24T08:24:59;87.53;;;4.43;;
4895;SDS011;2463;49.948;8.472;2023-04-24T08:27:26;88.65;;;4.68;;
4895;SDS011;2463;49.948;8.472;2023-04-24T08:29:53;87.13;;;5.13;;
4895;SDS011;2463;49.948;8.472;2023-04-24T08:32:20;86.15;;;4.50;;
4895;SDS011;2463;49.948;8.472;2023-04-24T08:34:47;88.53;;;4.60;;
4895;SDS011;2463;49.948;8.472;2023-04-24T08:37:15;88.15;;;4.97;;
4895;SDS011;2463;49.948;8.472;2023-04-24T08:39:41;87.80;;;4.43;;
4895;SDS011;2463;49.948;8.472;2023-04-24T08:42:09;88.05;;;4.50;;
4895;SDS011;2463;49.948;8.472;2023-04-24T08:44:37;89.53;;;5.05;;
4895;SDS011;2463;49.948;8.472;2023-04-24T08:47:04;87.68;;;4.60;;
4895;SDS011;2463;49.948;8.472;2023-04-24T08:49:33;87.75;;;4.80;;
4895;SDS011;2463;49.948;8.472;2023-04-24T08:52:02;87.35;;;4.90;;
4895;SDS011;2463;49.948;8.472;2023-04-24T08:54:29;88.20;;;4.50;;
4895;SDS011;2463;49.948;8.472;2023-04-24T08:56:58;88.22;;;5.10;;
4895;SDS011;2463;49.948;8.472;2023-04-24T08:59:30;87.88;;;5.20;;
4895;SDS011;2463;49.948;8.472;2023-04-24T09:01:57;88.78;;;5.20;;
4895;SDS011;2463;49.948;8.472;2023-04-24T09:04:25;87.97;;;4.80;;
4895;SDS011;2463;49.948;8.472;2023-04-24T09:06:55;88.72;;;5.30;;
4895;SDS011;2463;49.948;8.472;2023-04-24T09:09:24;90.53;;;5.60;;
4895;SDS011;2463;49.948;8.472;2023-04-24T09:11:51;89.45;;;5.43;;
4895;SDS011;2463;49.948;8.472;2023-04-24T09:14:21;88.80;;;5.32;;
4895;SDS011;2463;49.948;8.472;2023-04-24T09:16:50;89.18;;;5.30;;
4895;SDS011;2463;49.948;8.472;2023-04-24T09:19:17;89.35;;;5.15;;
4895;SDS011;2463;49.948;8.472;2023-04-24T09:21:45;88.43;;;5.40;;
4895;SDS011;2463;49.948;8.472;2023-04-24T09:24:16;89.63;;;5.00;;
4895;SDS011;2463;49.948;8.472;2023-04-24T09:26:46;89.15;;;5.15;;
4895;SDS011;2463;49.948;8.472;2023-04-24T09:29:16;89.00;;;5.00;;
4895;SDS011;2463;49.948;8.472;2023-04-24T09:31:44;90.07;;;4.97;;
4895;SDS011;2463;49.948;8.472;2023-04-24T09:34:12;92.75;;;5.20;;
4895;SDS011;2463;49.948;8.472;2023-04-24T09:36:42;88.28;;;4.82;;
4895;SDS011;2463;49.948;8.472;2023-04-24T09:39:13;89.13;;;4.75;;
4895;SDS011;2463;49.948;8.472;2023-04-24T09:41:52;89.38;;;5.00;;
4895;SDS011;2463;49.948;8.472;2023-04-24T09:44:27;90.32;;;4.80;;
4895;SDS011;2463;49.948;8.472;2023-04-24T09:46:58;90.28;;;5.10;;
4895;SDS011;2463;49.948;8.472;2023-04-24T09:49:26;88.60;;;4.60;;
4895;SDS011;2463;49.948;8.472;2023-04-24T09:52:08;88.90;;;4.80;;
4895;SDS011;2463;49.948;8.472;2023-04-24T09:54:37;88.93;;;4.50;;
4895;SDS011;2463;49.948;8.472;2023-04-24T09:57:04;90.90;;;4.45;;
4895;SDS011;2463;49.948;8.472;2023-04-24T09:59:33;88.63;;;4.80;;
4895;SDS011;2463;49.948;8.472;2023-04-24T10:02:02;90.00;;;4.75;;
4895;SDS011;2463;49.948;8.472;2023-04-24T10:04:53;89.20;;;5.53;;
4895;SDS011;2463;49.948;8.472;2023-04-24T10:07:22;88.88;;;4.95;;
4895;SDS011;2463;49.948;8.472;2023-04-24T10:09:52;91.43;;;4.85;;
4895;SDS011;2463;49.948;8.472;2023-04-24T10:12:19;90.45;;;4.97;;
4895;SDS011;2463;49.948;8.472;2023-04-24T10:14:47;88.13;;;4.50;;
4895;SDS011;2463;49.948;8.472;2023-04-24T10:17:14;89.72;;;5.13;;
4895;SDS011;2463;49.948;8.472;2023-04-24T10:19:41;89.90;;;4.88;;
4895;SDS011;2463;49.948;8.472;2023-04-24T10:22:10;91.45;;;5.05;;
4895;SDS011;2463;49.948;8.472;2023-04-24T10:24:37;88.53;;;4.88;;
4895;SDS011;2463;49.948;8.472;2023-04-24T10:27:04;88.35;;;5.00;;
4895;SDS011;2463;49.948;8.472;2023-04-24T10:29:32;91.03;;;5.15;;
4895;SDS011;2463;49.948;8.472;2023-04-24T10:32:01;90.00;;;5.00;;
4895;SDS011;2463;49.948;8.472;2023-04-24T10:34:28;88.03;;;4.35;;
4895;SDS011;2463;49.948;8.472;2023-04-24T10:36:55;88.90;;;4.40;;
4895;SDS011;2463;49.948;8.472;2023-04-24T10:39:23;88.88;;;5.00;;
4895;SDS011;2463;49.948;8.472;2023-04-24T10:41:53;89.05;;;4.57;;
4895;SDS011;2463;49.948;8.472;2023-04-24T10:44:23;88.70;;;5.10;;
4895;SDS011;2463;49.948;8.472;2023-04-24T10:46:54;97.95;;;5.10;;
4895;SDS011;2463;49.948;8.472;2023-04-24T10:49:28;87.25;;;4.60;;
4895;SDS011;2463;49.948;8.472;2023-04-24T10:52:00;87.60;;;5.10;;
4895;SDS011;2463;49.948;8.472;2023-04-24T10:59:48;88.78;;;5.25;;
4895;SDS011;2463;49.948;8.472;2023-04-24T11:02:17;92.72;;;5.68;;
4895;SDS011;2463;49.948;8.472;2023-04-24T11:04:44;88.72;;;5.25;;
4895;SDS011;2463;49.948;8.472;2023-04-24T11:07:11;89.10;;;4.88;;
4895;SDS011;2463;49.948;8.472;2023-04-24T11:09:38;88.95;;;4.78;;
4895;SDS011;2463;49.948;8.472;2023-04-24T11:12:09;88.90;;;4.90;;
4895;SDS011;2463;49.948;8.472;2023-04-24T11:22:53;88.07;;;4.60;;
4895;SDS011;2463;49.948;8.472;2023-04-24T11:25:21;88.88;;;4.93;;
4895;SDS011;2463;49.948;8.472;2023-04-24T11:27:49;88.07;;;4.57;;
4895;SDS011;2463;49.948;8.472;2023-04-24T11:30:19;88.80;;;5.05;;
4895;SDS011;2463;49.948;8.472;2023-04-24T11:32:47;90.53;;;5.47;;
4895;SDS011;2463;49.948;8.472;2023-04-24T11:35:17;87.82;;;4.55;;
4895;SDS011;2463;49.948;8.472;2023-04-24T11:37:44;88.47;;;4.82;;
4895;SDS011;2463;49.948;8.472;2023-04-24T11:40:32;88.88;;;4.60;;
4895;SDS011;2463;49.948;8.472;2023-04-24T11:42:59;89.95;;;5.00;;
4895;SDS011;2463;49.948;8.472;2023-04-24T11:45:28;89.43;;;4.95;;
4895;SDS011;2463;49.948;8.472;2023-04-24T11:47:56;89.15;;;4.78;;
4895;SDS011;2463;49.948;8.472;2023-04-24T11:50:25;88.57;;;4.82;;
4895;SDS011;2463;49.948;8.472;2023-04-24T11:52:53;88.80;;;4.97;;
4895;SDS011;2463;49.948;8.472;2023-04-24T11:57:49;87.88;;;4.45;;
4895;SDS011;2463;49.948;8.472;2023-04-24T12:00:21;86.93;;;4.22;;
4895;SDS011;2463;49.948;8.472;2023-04-24T12:02:49;87.93;;;4.35;;
4895;SDS011;2463;49.948;8.472;2023-04-24T12:05:21;88.55;;;5.18;;
4895;SDS011;2463;49.948;8.472;2023-04-24T12:07:49;88.70;;;4.55;;
4895;SDS011;2463;49.948;8.472;2023-04-24T12:10:20;87.65;;;4.70;;
4895;SDS011;2463;49.948;8.472;2023-04-24T12:12:47;88.30;;;4.93;;
4895;SDS011;2463;49.948;8.472;2023-04-24T12:15:17;87.05;;;4.50;;
4895;SDS011;2463;49.948;8.472;2023-04-24T12:17:45;87.93;;;4.60;;
4895;SDS011;2463;49.948;8.472;2023-04-24T12:20:12;87.45;;;4.70;;
4895;SDS011;2463;49.948;8.472;2023-04-24T12:22:43;87.00;;;4.60;;
4895;SDS011;2463;49.948;8.472;2023-04-24T12:25:16;88.35;;;4.97;;
4895;SDS011;2463;49.948;8.472;2023-04-24T12:27:44;88.75;;;5.45;;
4895;SDS011;2463;49.948;8.472;2023-04-24T12:30:15;93.13;;;5.47;;
4895;SDS011;2463;49.948;8.472;2023-04-24T12:32:43;89.55;;;4.80;;
4895;SDS011;2463;49.948;8.472;2023-04-24T12:35:11;88.28;;;4.85;;
4895;SDS011;2463;49.948;8.472;2023-04-24T12:37:38;87.03;;;4.70;;
4895;SDS011;2463;49.948;8.472;2023-04-24T12:40:12;90.30;;;5.00;;
4895;SDS011;2463;49.948;8.472;2023-04-24T12:42:43;87.82;;;4.80;;
4895;SDS011;2463;49.948;8.472;2023-04-24T12:45:11;89.25;;;5.50;;
4895;SDS011;2463;49.948;8.472;2023-04-24T12:47:39;88.82;;;5.50;;
4895;SDS011;2463;49.948;8.472;2023-04-24T12:50:07;90.07;;;6.28;;
4895;SDS011;2463;49.948;8.472;2023-04-24T12:52:36;90.38;;;4.93;;
4895;SDS011;2463;49.948;8.472;2023-04-24T12:55:03;89.47;;;5.72;;
4895;SDS011;2463;49.948;8.472;2023-04-24T12:57:32;89.72;;;5.10;;
4895;SDS011;2463;49.948;8.472;2023-04-24T12:59:59;90.75;;;5.20;;
4895;SDS011;2463;49.948;8.472;2023-04-24T13:02:27;90.55;;;5.10;;
4895;SDS011;2463;49.948;8.472;2023-04-24T13:04:56;91.85;;;5.75;;
4895;SDS011;2463;49.948;8.472;2023-04-24T13:07:24;89.80;;;5.68;;
4895;SDS011;2463;49.948;8.472;2023-04-24T13:09:51;88.43;;;5.50;;
4895;SDS011;2463;49.948;8.472;2023-04-24T13:12:19;89.10;;;5.45;;
4895;SDS011;2463;49.948;8.472;2023-04-24T13:14:46;91.47;;;6.00;;
4895;SDS011;2463;49.948;8.472;2023-04-24T13:17:13;88.72;;;5.10;;
4895;SDS011;2463;49.948;8.472;2023-04-24T13:19:42;87.63;;;5.03;;
4895;SDS011;2463;49.948;8.472;2023-04-24T13:22:10;91.55;;;6.15;;
4895;SDS011;2463;49.948;8.472;2023-04-24T13:24:38;93.93;;;5.03;;
4895;SDS011;2463;49.948;8.472;2023-04-24T13:27:08;88.80;;;5.25;;
4895;SDS011;2463;49.948;8.472;2023-04-24T13:29:36;89.20;;;5.55;;
4895;SDS011;2463;49.948;8.472;2023-04-24T13:32:03;89.68;;;5.00;;
4895;SDS011;2463;49.948;8.472;2023-04-24T13:34:30;87.00;;;4.90;;
4895;SDS011;2463;49.948;8.472;2023-04-24T13:36:57;91.50;;;5.63;;
4895;SDS011;2463;49.948;8.472;2023-04-24T13:39:24;89.38;;;5.25;;
4895;SDS011;2463;49.948;8.472;2023-04-24T13:41:52;88.88;;;5.50;;
4895;SDS011;2463;49.948;8.472;2023-04-24T13:44:20;89.32;;;5.50;;
4895;SDS011;2463;49.948;8.472;2023-04-24T13:46:49;89.15;;;5.70;;
4895;SDS011;2463;49.948;8.472;2023-04-24T13:49:18;89.30;;;5.70;;
4895;SDS011;2463;49.948;8.472;2023-04-24T13:51:45;90.93;;;5.55;;
4895;SDS011;2463;49.948;8.472;2023-04-24T13:54:12;88.72;;;5.50;;
4895;SDS011;2463;49.948;8.472;2023-04-24T13:56:39;93.40;;;5.70;;
4895;SDS011;2463;49.948;8.472;2023-04-24T13:59:06;88.88;;;5.72;;
4895;SDS011;2463;49.948;8.472;2023-04-24T14:01:33;92.15;;;5.53;;
4895;SDS011;2463;49.948;8.472;2023-04-24T14:04:00;93.18;;;6.10;;
4895;SDS011;2463;49.948;8.472;2023-04-24T14:06:27;89.45;;;5.60;;
4895;SDS011;2463;49.948;8.472;2023-04-24T14:08:54;88.90;;;5.30;;
4895;SDS011;2463;49.948;8.472;2023-04-24T14:11:20;90.25;;;5.97;;
4895;SDS011;2463;49.948;8.472;2023-04-24T14:13:48;89.55;;;5.72;;
4895;SDS011;2463;49.948;8.472;2023-04-24T14:16:15;88.35;;;5.32;;
4895;SDS011;2463;49.948;8.472;2023-04-24T14:18:42;92.85;;;5.93;;
4895;SDS011;2463;49.948;8.472;2023-04-24T14:21:08;93.20;;;5.53;;
4895;SDS011;2463;49.948;8.472;2023-04-24T14:23:35;89.55;;;5.45;;
4895;SDS011;2463;49.948;8.472;2023-04-24T14:26:02;93.10;;;5.80;;
4895;SDS011;2463;49.948;8.472;2023-04-24T14:28:29;94.55;;;5.32;;
4895;SDS011;2463;49.948;8.472;2023-04-24T14:30:55;90.57;;;5.30;;
4895;SDS011;2463;49.948;8.472;2023-04-24T14:33:22;92.38;;;7.22;;
4895;SDS011;2463;49.948;8.472;2023-04-24T14:35:49;89.70;;;5.63;;
4895;SDS011;2463;49.948;8.472;2023-04-24T14:38:15;90.53;;;5.50;;
4895;SDS011;2463;49.948;8.472;2023-04-24T14:40:42;91.38;;;6.28;;
4895;SDS011;2463;49.948;8.472;2023-04-24T14:43:29;91.80;;;5.80;;
4895;SDS011;2463;49.948;8.472;2023-04-24T14:45:56;90.20;;;5.82;;
4895;SDS011;2463;49.948;8.472;2023-04-24T14:48:22;88.95;;;5.30;;
4895;SDS011;2463;49.948;8.472;2023-04-24T14:50:49;88.13;;;5.00;;
4895;SDS011;2463;49.948;8.472;2023-04-24T14:53:16;92.82;;;6.07;;
4895;SDS011;2463;49.948;8.472;2023-04-24T14:55:43;92.15;;;5.93;;
4895;SDS011;2463;49.948;8.472;2023-04-24T14:58:10;88.72;;;5.35;;
4895;SDS011;2463;49.948;8.472;2023-04-24T15:00:37;90.18;;;5.55;;
4895;SDS011;2463;49.948;8.472;2023-04-24T15:03:03;91.22;;;5.50;;
4895;SDS011;2463;49.948;8.472;2023-04-24T15:05:31;90.60;;;6.45;;
4895;SDS011;2463;49.948;8.472;2023-04-24T15:07:58;90.28;;;5.85;;
4895;SDS011;2463;49.948;8.472;2023-04-24T15:10:24;90.55;;;5.70;;
4895;SDS011;2463;49.948;8.472;2023-04-24T15:12:51;88.80;;;5.28;;
4895;SDS011;2463;49.948;8.472;2023-04-24T15:15:18;90.28;;;5.80;;
4895;SDS011;2463;49.948;8.472;2023-04-24T15:17:45;99.15;;;5.78;;
4895;SDS011;2463;49.948;8.472;2023-04-24T15:20:12;88.88;;;5.30;;